Time;durP1;ratioP1;P1;durP2;ratioP2;P2;SDS_P1;SDS_P2;PMS_P1;PMS_P2;Temp;Humidity;BMP_temperature;BMP_pressure;BME280_temperature;BME280_humidity;BME280_pressure;Samples;Min_cycle;Max_cycle;Signal;HPM_P1;HPM_P2
2022/08/09 00:00:36;;;;;;;6.35;2.55;;;;;;;;;;5056521;28;20404;-72
2022/08/09 00:03:02;;;;;;;5.32;2.42;;;;;;;;;;5056573;28;20429;-71
2022/08/09 00:05:28;;;;;;;3.00;2.35;;;;;;;;;;5056496;28;20065;-71
2022/08/09 00:07:54;;;;;;;4.20;2.30;;;;;;;;;;5057066;28;20029;-71
2022/08/09 00:10:21;;;;;;;3.65;2.45;;;;;;;;;;5056462;28;20112;-72
2022/08/09 00:12:47;;;;;;;3.35;2.22;;;;;;;;;;5038533;28;20500;-71
2022/08/09 00:15:13;;;;;;;7.18;2.60;;;;;;;;;;5056296;28;20489;-72
2022/08/09 00:17:39;;;;;;;4.43;2.30;;;;;;;;;;5056183;28;20029;-71
2022/08/09 00:20:05;;;;;;;3.45;2.25;;;;;;;;;;5038379;28;20040;-72
2022/08/09 00:22:31;;;;;;;3.58;2.30;;;;;;;;;;5056168;28;20029;-72
2022/08/09 00:24:57;;;;;;;5.65;2.50;;;;;;;;;;5056424;28;20098;-71
2022/08/09 00:27:23;;;;;;;5.47;2.65;;;;;;;;;;5056408;28;20083;-71
2022/08/09 00:29:49;;;;;;;6.38;2.80;;;;;;;;;;5056381;28;20424;-71
2022/08/09 00:32:16;;;;;;;5.45;2.65;;;;;;;;;;5056093;28;20126;-71
2022/08/09 00:34:43;;;;;;;8.07;2.78;;;;;;;;;;5055998;28;20036;-71
2022/08/09 00:37:09;;;;;;;6.10;2.50;;;;;;;;;;5056147;28;20056;-71
2022/08/09 00:39:35;;;;;;;7.43;2.78;;;;;;;;;;5055913;28;20020;-71
2022/08/09 00:42:01;;;;;;;4.47;2.60;;;;;;;;;;5056127;28;20025;-71
2022/08/09 00:44:27;;;;;;;7.05;2.70;;;;;;;;;;5037924;28;20059;-72
2022/08/09 00:46:53;;;;;;;4.55;2.30;;;;;;;;;;5055761;28;20164;-72
2022/08/09 00:49:19;;;;;;;4.28;2.53;;;;;;;;;;5055702;28;20082;-72
2022/08/09 00:51:45;;;;;;;5.57;2.60;;;;;;;;;;5055710;28;20040;-72
2022/08/09 00:54:12;;;;;;;4.47;2.28;;;;;;;;;;5055421;28;20045;-71
2022/08/09 00:56:38;;;;;;;4.95;2.58;;;;;;;;;;5054496;28;20120;-71
2022/08/09 00:59:04;;;;;;;4.30;2.63;;;;;;;;;;5056285;28;20174;-71
2022/08/09 01:01:34;;;;;;;6.50;2.80;;;;;;;;;;5055662;28;20021;-71
2022/08/09 01:04:00;;;;;;;;;;;;;;;;;;5056169;28;20024;-72
2022/08/09 01:06:44;;;;;;;4.28;2.92;;;;;;;;;;5055341;28;19904;-72
2022/08/09 01:09:18;;;;;;;4.85;2.90;;;;;;;;;;5055854;28;20492;-71
2022/08/09 01:11:54;;;;;;;5.95;2.60;;;;;;;;;;5055901;28;20055;-71
2022/08/09 01:14:44;;;;;;;3.88;2.70;;;;;;;;;;5055811;28;20029;-71
2022/08/09 01:17:36;;;;;;;5.10;3.00;;;;;;;;;;5049824;28;20033;-71
2022/08/09 01:20:21;;;;;;;5.13;3.05;;;;;;;;;;5053109;28;20407;-71
2022/08/09 01:23:16;;;;;;;5.93;3.15;;;;;;;;;;5055392;28;20021;-71
2022/08/09 01:25:56;;;;;;;5.13;2.80;;;;;;;;;;5046279;28;20485;-71
2022/08/09 01:28:23;;;;;;;4.70;3.33;;;;;;;;;;5055303;28;20028;-71
2022/08/09 01:30:51;;;;;;;5.00;2.85;;;;;;;;;;5054976;28;20390;-71
2022/08/09 01:33:18;;;;;;;5.90;3.08;;;;;;;;;;5054894;28;20028;-71
2022/08/09 01:35:53;;;;;;;8.23;3.50;;;;;;;;;;5054746;28;20056;-71
2022/08/09 01:38:21;;;;;;;7.57;2.80;;;;;;;;;;5055054;28;20021;-71
2022/08/09 01:40:50;;;;;;;8.10;3.25;;;;;;;;;;5054740;28;20021;-71
2022/08/09 01:43:16;;;;;;;5.63;3.17;;;;;;;;;;5054670;28;20420;-71
2022/08/09 01:45:42;;;;;;;5.90;2.90;;;;;;;;;;5054620;28;20025;-71
2022/08/09 01:48:09;;;;;;;5.97;3.15;;;;;;;;;;5054625;28;20024;-72
2022/08/09 01:50:36;;;;;;;5.55;2.72;;;;;;;;;;5054569;28;20032;-72
2022/08/09 01:53:03;;;;;;;4.47;2.75;;;;;;;;;;5054574;28;20104;-71
2022/08/09 01:55:32;;;;;;;6.78;3.25;;;;;;;;;;5054283;28;20092;-71
2022/08/09 01:57:59;;;;;;;5.65;3.03;;;;;;;;;;5054916;28;20021;-71
2022/08/09 02:00:26;;;;;;;5.30;3.20;;;;;;;;;;5054856;28;20068;-71
2022/08/09 02:02:53;;;;;;;9.95;3.28;;;;;;;;;;5054372;28;20021;-71
2022/08/09 02:05:20;;;;;;;8.38;3.40;;;;;;;;;;5054597;28;20024;-72
2022/08/09 02:08:02;;;;;;;5.70;2.67;;;;;;;;;;5054063;28;20021;-71
2022/08/09 02:10:35;;;;;;;4.32;2.95;;;;;;;;;;5054502;28;20025;-72
2022/08/09 02:13:04;;;;;;;4.38;2.83;;;;;;;;;;5054112;28;20047;-71
2022/08/09 02:15:32;;;;;;;7.88;3.83;;;;;;;;;;5054049;28;20025;-71
2022/08/09 02:17:59;;;;;;;5.20;3.10;;;;;;;;;;5054024;28;20033;-71
2022/08/09 02:20:26;;;;;;;6.90;3.20;;;;;;;;;;5053985;28;20036;-71
2022/08/09 02:22:56;;;;;;;5.93;2.90;;;;;;;;;;5053923;28;20025;-71
2022/08/09 02:25:28;;;;;;;5.13;3.20;;;;;;;;;;5053965;28;20021;-72
2022/08/09 02:27:59;;;;;;;3.95;3.25;;;;;;;;;;5053828;28;20119;-71
2022/08/09 02:30:25;;;;;;;4.18;3.00;;;;;;;;;;5054052;28;20104;-71
2022/08/09 02:32:53;;;;;;;6.45;3.72;;;;;;;;;;5053738;28;20452;-71
2022/08/09 02:35:23;;;;;;;5.25;3.30;;;;;;;;;;5054029;28;20057;-71
2022/08/09 02:37:52;;;;;;;5.32;3.08;;;;;;;;;;5053944;28;20053;-71
2022/08/09 02:40:19;;;;;;;6.10;3.22;;;;;;;;;;5053639;28;20017;-71
2022/08/09 02:42:47;;;;;;;7.00;3.65;;;;;;;;;;5053610;28;20056;-72
2022/08/09 02:45:14;;;;;;;5.13;3.53;;;;;;;;;;5053620;28;20025;-72
2022/08/09 02:47:41;;;;;;;8.57;3.60;;;;;;;;;;5053533;28;20064;-71
2022/08/09 02:50:11;;;;;;;11.48;4.00;;;;;;;;;;5053488;28;20103;-71
2022/08/09 02:52:41;;;;;;;6.63;3.70;;;;;;;;;;5053451;28;20397;-71
2022/08/09 02:55:08;;;;;;;9.82;3.92;;;;;;;;;;5053214;28;20536;-71
2022/08/09 02:57:35;;;;;;;5.95;4.00;;;;;;;;;;5053822;28;20025;-71
2022/08/09 03:00:02;;;;;;;7.18;3.75;;;;;;;;;;5053750;28;20025;-71
2022/08/09 03:02:29;;;;;;;6.00;3.85;;;;;;;;;;5035395;28;20032;-71
2022/08/09 03:04:56;;;;;;;7.72;3.70;;;;;;;;;;5035438;28;20036;-71
2022/08/09 03:07:22;;;;;;;7.68;3.45;;;;;;;;;;5053297;28;20029;-71
2022/08/09 03:09:48;;;;;;;6.03;3.53;;;;;;;;;;5053172;28;20025;-71
2022/08/09 03:12:15;;;;;;;6.13;3.67;;;;;;;;;;5035384;28;20024;-71
2022/08/09 03:14:42;;;;;;;9.48;4.57;;;;;;;;;;5053433;28;20075;-72
2022/08/09 03:17:09;;;;;;;6.18;3.75;;;;;;;;;;5053378;28;20032;-71
2022/08/09 03:19:36;;;;;;;8.20;4.18;;;;;;;;;;5052897;28;20405;-71
2022/08/09 03:22:02;;;;;;;6.82;3.80;;;;;;;;;;5053098;28;20021;-71
2022/08/09 03:24:28;;;;;;;9.52;3.70;;;;;;;;;;5035230;28;20032;-71
2022/08/09 03:26:55;;;;;;;5.57;3.90;;;;;;;;;;5053008;28;20025;-71
2022/08/09 03:29:22;;;;;;;7.95;4.20;;;;;;;;;;5035079;28;20033;-71
2022/08/09 03:31:48;;;;;;;10.27;4.00;;;;;;;;;;5035118;28;20029;-71
2022/08/09 03:34:14;;;;;;;7.47;4.07;;;;;;;;;;5052955;28;20032;-71
2022/08/09 03:36:40;;;;;;;5.38;3.67;;;;;;;;;;5053371;28;20374;-71
2022/08/09 03:39:06;;;;;;;5.32;3.58;;;;;;;;;;5052798;28;20078;-71
2022/08/09 03:41:32;;;;;;;6.88;3.30;;;;;;;;;;5035016;28;20507;-71
2022/08/09 03:43:58;;;;;;;6.72;3.58;;;;;;;;;;5052881;28;20017;-71
2022/08/09 03:46:24;;;;;;;7.68;4.05;;;;;;;;;;5052902;28;20044;-71
2022/08/09 03:48:53;;;;;;;5.65;3.63;;;;;;;;;;5052858;28;20022;-71
2022/08/09 03:51:22;;;;;;;6.45;4.00;;;;;;;;;;5052825;28;20029;-71
2022/08/09 03:53:49;;;;;;;8.40;4.37;;;;;;;;;;5053024;28;20444;-72
2022/08/09 03:56:15;;;;;;;7.05;4.00;;;;;;;;;;5052720;28;20461;-71
2022/08/09 03:58:41;;;;;;;12.80;3.95;;;;;;;;;;5053558;28;20025;-71
2022/08/09 04:01:08;;;;;;;8.63;3.92;;;;;;;;;;5052645;28;20017;-71
2022/08/09 04:03:35;;;;;;;9.77;4.20;;;;;;;;;;5034891;28;20063;-71
2022/08/09 04:06:01;;;;;;;11.18;4.25;;;;;;;;;;5034851;28;20132;-71
2022/08/09 04:08:27;;;;;;;9.88;4.40;;;;;;;;;;5052676;28;20044;-71
2022/08/09 04:10:53;;;;;;;6.40;4.43;;;;;;;;;;5034791;28;20120;-71
2022/08/09 04:13:19;;;;;;;6.93;4.57;;;;;;;;;;5052610;28;20033;-71
2022/08/09 04:15:45;;;;;;;7.13;4.13;;;;;;;;;;5034669;28;20079;-71
2022/08/09 04:18:12;;;;;;;9.40;4.65;;;;;;;;;;5034782;28;20028;-72
2022/08/09 04:20:38;;;;;;;9.25;4.70;;;;;;;;;;5034732;28;20025;-71
2022/08/09 04:23:04;;;;;;;8.88;4.65;;;;;;;;;;5052803;28;20028;-72
2022/08/09 04:25:30;;;;;;;6.32;4.47;;;;;;;;;;5052813;28;20413;-71
2022/08/09 04:27:57;;;;;;;6.53;4.10;;;;;;;;;;5052735;28;20029;-71
2022/08/09 04:30:23;;;;;;;9.00;4.18;;;;;;;;;;5052489;28;20032;-71
2022/08/09 04:32:49;;;;;;;8.20;4.05;;;;;;;;;;5055211;28;20388;-71
2022/08/09 04:35:15;;;;;;;6.78;4.00;;;;;;;;;;5056019;28;20032;-71
2022/08/09 04:37:41;;;;;;;7.00;3.95;;;;;;;;;;5055867;28;20028;-71
2022/08/09 04:40:08;;;;;;;6.32;4.07;;;;;;;;;;5038048;28;20021;-71
2022/08/09 04:42:34;;;;;;;7.47;4.32;;;;;;;;;;5056169;28;20025;-71
2022/08/09 04:45:00;;;;;;;10.30;4.80;;;;;;;;;;5056116;28;20021;-71
2022/08/09 04:47:27;;;;;;;8.70;4.60;;;;;;;;;;5056033;28;20420;-71
2022/08/09 04:49:54;;;;;;;8.15;4.38;;;;;;;;;;5055739;28;20448;-71
2022/08/09 04:52:21;;;;;;;9.23;4.30;;;;;;;;;;5037758;28;20546;-71
2022/08/09 04:54:50;;;;;;;6.60;3.95;;;;;;;;;;5061781;28;20489;-71
2022/08/09 04:57:16;;;;;;;6.25;3.85;;;;;;;;;;5074294;28;20115;-71
2022/08/09 04:59:42;;;;;;;6.47;4.03;;;;;;;;;;5076056;28;20456;-71
2022/08/09 05:02:08;;;;;;;7.07;4.38;;;;;;;;;;5075507;28;20060;-72
2022/08/09 05:04:34;;;;;;;8.38;4.40;;;;;;;;;;5076010;28;20111;-71
2022/08/09 05:07:00;;;;;;;7.38;4.00;;;;;;;;;;5075429;28;20100;-71
2022/08/09 05:09:29;;;;;;;7.53;4.15;;;;;;;;;;5075354;28;20039;-71
2022/08/09 05:11:55;;;;;;;6.72;4.40;;;;;;;;;;5075412;28;20021;-71
2022/08/09 05:14:21;;;;;;;6.57;4.70;;;;;;;;;;5075565;28;20028;-71
2022/08/09 05:16:47;;;;;;;7.90;3.95;;;;;;;;;;5075111;28;20492;-71
2022/08/09 05:19:20;;;;;;;7.13;3.97;;;;;;;;;;5075206;28;20021;-71
2022/08/09 05:21:47;;;;;;;9.88;5.38;;;;;;;;;;5073694;28;20025;-71
2022/08/09 05:24:13;;;;;;;8.82;4.53;;;;;;;;;;5075126;28;20024;-71
2022/08/09 05:26:39;;;;;;;8.18;4.18;;;;;;;;;;5075126;28;20031;-71
2022/08/09 05:29:05;;;;;;;7.18;4.60;;;;;;;;;;5075569;28;20043;-71
2022/08/09 05:31:32;;;;;;;6.55;4.10;;;;;;;;;;5075227;28;20074;-71
2022/08/09 05:33:58;;;;;;;12.68;5.07;;;;;;;;;;5075486;28;20036;-71
2022/08/09 05:36:25;;;;;;;9.10;4.63;;;;;;;;;;5074780;28;20025;-71
2022/08/09 05:38:51;;;;;;;7.15;4.13;;;;;;;;;;5075152;28;20099;-71
2022/08/09 05:41:17;;;;;;;8.43;4.90;;;;;;;;;;5075029;28;20052;-71
2022/08/09 05:43:43;;;;;;;8.45;4.38;;;;;;;;;;5074288;28;20508;-71
2022/08/09 05:46:10;;;;;;;6.93;4.50;;;;;;;;;;5074686;28;20028;-71
2022/08/09 05:48:36;;;;;;;8.05;4.43;;;;;;;;;;5074674;28;20122;-71
2022/08/09 05:51:02;;;;;;;7.65;4.20;;;;;;;;;;5074597;28;20034;-71
2022/08/09 05:53:28;;;;;;;9.57;4.28;;;;;;;;;;5070230;28;20091;-71
2022/08/09 05:55:54;;;;;;;6.88;4.25;;;;;;;;;;5054444;28;20546;-71
2022/08/09 05:58:23;;;;;;;7.82;4.45;;;;;;;;;;5054748;28;20017;-71
2022/08/09 06:00:49;;;;;;;9.63;4.32;;;;;;;;;;5054334;28;20021;-72
2022/08/09 06:03:15;;;;;;;8.43;4.40;;;;;;;;;;5054353;28;20482;-71
2022/08/09 06:05:41;;;;;;;14.25;5.18;;;;;;;;;;5054340;28;20021;-71
2022/08/09 06:08:07;;;;;;;10.07;4.78;;;;;;;;;;5036420;28;20024;-72
2022/08/09 06:10:39;;;;;;;11.02;4.22;;;;;;;;;;5054225;28;20440;-71
2022/08/09 06:13:09;;;;;;;9.27;4.10;;;;;;;;;;5054169;28;20032;-71
2022/08/09 06:15:35;;;;;;;7.70;3.45;;;;;;;;;;5054366;28;20033;-71
2022/08/09 06:18:01;;;;;;;9.20;3.45;;;;;;;;;;5053980;28;20432;-72
2022/08/09 06:20:27;;;;;;;7.38;3.40;;;;;;;;;;5054025;28;20389;-71
2022/08/09 06:22:53;;;;;;;6.63;3.42;;;;;;;;;;5036105;28;20027;-72
2022/08/09 06:25:19;;;;;;;5.60;3.17;;;;;;;;;;5054227;28;20029;-72
2022/08/09 06:27:45;;;;;;;8.88;3.78;;;;;;;;;;5036010;28;20440;-71
2022/08/09 06:30:11;;;;;;;6.07;3.03;;;;;;;;;;5053825;28;20033;-72
2022/08/09 06:32:37;;;;;;;8.27;2.95;;;;;;;;;;5054077;28;20025;-71
2022/08/09 06:35:04;;;;;;;10.43;3.78;;;;;;;;;;5054014;28;20087;-72
2022/08/09 06:37:30;;;;;;;6.75;3.08;;;;;;;;;;5035706;28;20432;-72
2022/08/09 06:39:56;;;;;;;7.18;3.35;;;;;;;;;;5053668;28;20021;-72
2022/08/09 06:42:22;;;;;;;8.85;3.67;;;;;;;;;;5035766;28;20047;-72
2022/08/09 06:44:48;;;;;;;6.65;3.33;;;;;;;;;;5053893;28;20404;-72
2022/08/09 06:47:14;;;;;;;6.40;3.20;;;;;;;;;;5053804;28;20029;-72
2022/08/09 06:49:41;;;;;;;7.32;3.30;;;;;;;;;;5054037;28;20029;-72
2022/08/09 06:52:07;;;;;;;6.85;3.05;;;;;;;;;;5053483;28;20074;-72
2022/08/09 06:54:33;;;;;;;7.43;3.05;;;;;;;;;;5052484;28;20048;-72
2022/08/09 06:56:59;;;;;;;7.70;3.00;;;;;;;;;;5053313;28;20025;-72
2022/08/09 06:59:25;;;;;;;6.80;3.40;;;;;;;;;;5053870;28;20032;-72
2022/08/09 07:01:51;;;;;;;6.32;3.42;;;;;;;;;;5053284;28;20371;-72
2022/08/09 07:04:17;;;;;;;10.02;3.30;;;;;;;;;;5035453;28;20025;-72
2022/08/09 07:06:43;;;;;;;7.50;3.30;;;;;;;;;;5053260;28;20021;-72
2022/08/09 07:09:11;;;;;;;7.60;2.80;;;;;;;;;;5035367;28;20032;-72
2022/08/09 07:11:37;;;;;;;7.00;3.22;;;;;;;;;;5053481;28;20021;-72
2022/08/09 07:14:03;;;;;;;6.32;2.90;;;;;;;;;;5053161;28;20550;-71
2022/08/09 07:16:29;;;;;;;7.32;3.38;;;;;;;;;;5053109;28;20052;-72
2022/08/09 07:18:55;;;;;;;7.15;3.50;;;;;;;;;;5053135;28;20470;-71
2022/08/09 07:21:21;;;;;;;5.80;2.88;;;;;;;;;;5053161;28;20017;-72
2022/08/09 07:23:47;;;;;;;9.25;3.17;;;;;;;;;;5053122;28;20029;-72
2022/08/09 07:26:13;;;;;;;6.05;3.17;;;;;;;;;;5053056;28;20025;-71
2022/08/09 07:28:39;;;;;;;6.30;3.00;;;;;;;;;;5053039;28;20392;-72
2022/08/09 07:31:05;;;;;;;6.03;3.47;;;;;;;;;;5052997;28;20032;-72
2022/08/09 07:33:32;;;;;;;6.03;3.13;;;;;;;;;;5052969;28;20037;-72
2022/08/09 07:35:58;;;;;;;4.80;3.13;;;;;;;;;;5052916;28;20025;-72
2022/08/09 07:38:24;;;;;;;6.05;3.05;;;;;;;;;;5053198;28;20021;-72
2022/08/09 07:40:51;;;;;;;4.13;2.75;;;;;;;;;;5035028;28;20115;-72
2022/08/09 07:43:17;;;;;;;12.05;3.10;;;;;;;;;;5052895;28;20446;-72
2022/08/09 07:45:44;;;;;;;9.90;3.20;;;;;;;;;;5053163;28;20385;-71
2022/08/09 07:48:10;;;;;;;7.85;3.58;;;;;;;;;;5034968;28;20074;-72
2022/08/09 07:50:39;;;;;;;9.60;3.25;;;;;;;;;;5052835;28;20028;-71
2022/08/09 07:53:06;;;;;;;6.13;3.10;;;;;;;;;;5052875;28;20021;-71
2022/08/09 07:55:32;;;;;;;9.10;3.10;;;;;;;;;;5052699;28;20116;-71
2022/08/09 07:57:58;;;;;;;7.60;3.03;;;;;;;;;;5052738;28;20036;-72
2022/08/09 08:00:24;;;;;;;5.45;2.97;;;;;;;;;;5053208;28;20017;-71
2022/08/09 08:02:51;;;;;;;9.45;3.72;;;;;;;;;;5052681;28;20055;-72
2022/08/09 08:05:17;;;;;;;7.32;3.00;;;;;;;;;;5053165;28;20075;-72
2022/08/09 08:07:43;;;;;;;7.28;2.85;;;;;;;;;;5038695;28;20033;-72
2022/08/09 08:10:09;;;;;;;6.43;3.40;;;;;;;;;;5056510;28;20025;-71
2022/08/09 08:12:39;;;;;;;4.13;2.70;;;;;;;;;;5056460;28;20037;-72
2022/08/09 08:15:06;;;;;;;8.23;3.38;;;;;;;;;;5056724;28;20104;-72
2022/08/09 08:17:32;;;;;;;5.97;3.00;;;;;;;;;;5056598;28;20029;-72
2022/08/09 08:19:58;;;;;;;7.18;2.83;;;;;;;;;;5056641;28;20051;-72
2022/08/09 08:22:24;;;;;;;7.00;3.42;;;;;;;;;;5056600;28;20025;-72
2022/08/09 08:24:54;;;;;;;6.68;2.88;;;;;;;;;;5056742;28;20425;-72
2022/08/09 08:27:21;;;;;;;8.20;2.90;;;;;;;;;;5038582;28;20478;-72
2022/08/09 08:29:47;;;;;;;5.63;3.10;;;;;;;;;;5056080;28;20035;-72
2022/08/09 08:32:13;;;;;;;8.80;2.83;;;;;;;;;;5056085;28;20025;-72
2022/08/09 08:34:39;;;;;;;6.82;2.75;;;;;;;;;;5056303;28;20424;-72
2022/08/09 08:37:05;;;;;;;4.35;2.60;;;;;;;;;;5055891;28;20039;-72
2022/08/09 08:39:31;;;;;;;5.20;2.67;;;;;;;;;;5056207;28;20033;-71
2022/08/09 08:41:57;;;;;;;4.43;2.97;;;;;;;;;;5056436;28;20100;-72
2022/08/09 08:44:23;;;;;;;4.38;2.50;;;;;;;;;;5055799;28;20059;-72
2022/08/09 08:46:50;;;;;;;6.75;2.60;;;;;;;;;;5056066;28;20025;-72
2022/08/09 08:49:16;;;;;;;6.38;2.83;;;;;;;;;;5055763;28;20037;-73
2022/08/09 08:51:42;;;;;;;4.25;2.67;;;;;;;;;;5055736;28;20079;-72
2022/08/09 08:54:08;;;;;;;7.25;3.22;;;;;;;;;;5050907;28;20052;-71
2022/08/09 08:56:35;;;;;;;7.00;2.83;;;;;;;;;;5075650;28;20028;-72
2022/08/09 08:59:03;;;;;;;4.68;2.60;;;;;;;;;;5076232;28;20059;-72
2022/08/09 09:01:29;;;;;;;5.18;2.63;;;;;;;;;;5074225;28;20052;-72
2022/08/09 09:03:55;;;;;;;4.65;2.45;;;;;;;;;;5075513;28;20107;-72
2022/08/09 09:06:21;;;;;;;6.03;2.72;;;;;;;;;;5075723;28;20036;-71
2022/08/09 09:08:48;;;;;;;3.42;2.25;;;;;;;;;;5075914;28;20372;-72
2022/08/09 09:11:15;;;;;;;3.17;2.05;;;;;;;;;;5075617;28;20056;-71
2022/08/09 09:13:43;;;;;;;4.10;2.15;;;;;;;;;;5073991;28;20028;-72
2022/08/09 09:16:09;;;;;;;5.57;2.38;;;;;;;;;;5075175;28;20032;-72
2022/08/09 09:18:35;;;;;;;5.60;2.65;;;;;;;;;;5074372;28;20436;-72
2022/08/09 09:21:01;;;;;;;5.25;2.40;;;;;;;;;;5075219;28;20025;-72
2022/08/09 09:23:43;;;;;;;5.30;2.50;;;;;;;;;;5075170;28;20025;-72
2022/08/09 09:26:12;;;;;;;6.82;2.50;;;;;;;;;;5075451;28;20036;-72
2022/08/09 09:28:42;;;;;;;3.60;2.20;;;;;;;;;;5075079;28;20449;-72
2022/08/09 09:31:12;;;;;;;6.72;2.80;;;;;;;;;;5075004;28;20036;-72
2022/08/09 09:33:38;;;;;;;9.63;2.78;;;;;;;;;;5075209;28;20031;-73
2022/08/09 09:36:08;;;;;;;4.65;2.10;;;;;;;;;;5075095;28;20099;-72
2022/08/09 09:38:40;;;;;;;2.85;1.75;;;;;;;;;;5074869;28;20070;-72
2022/08/09 09:41:07;;;;;;;3.42;1.80;;;;;;;;;;5074527;28;20024;-72
2022/08/09 09:43:33;;;;;;;4.32;2.13;;;;;;;;;;5074645;28;20051;-71
2022/08/09 09:46:01;;;;;;;6.35;2.10;;;;;;;;;;5074644;28;20051;-72
2022/08/09 09:48:28;;;;;;;4.28;2.10;;;;;;;;;;5073345;28;20025;-72
2022/08/09 09:50:54;;;;;;;3.60;2.00;;;;;;;;;;5074935;28;20472;-72
2022/08/09 09:53:22;;;;;;;3.13;2.00;;;;;;;;;;5072866;28;20024;-72
2022/08/09 09:55:52;;;;;;;3.90;1.70;;;;;;;;;;5054856;28;20021;-72
2022/08/09 09:58:18;;;;;;;5.03;1.95;;;;;;;;;;5054483;28;20021;-72
2022/08/09 10:00:54;;;;;;;3.38;1.77;;;;;;;;;;5055121;28;20021;-72
2022/08/09 10:03:39;;;;;;;3.97;2.22;;;;;;;;;;5054915;28;20029;-72
2022/08/09 10:06:05;;;;;;;4.85;1.92;;;;;;;;;;5054844;28;20025;-72
2022/08/09 10:08:31;;;;;;;8.38;2.22;;;;;;;;;;5036410;28;20021;-72
2022/08/09 10:10:57;;;;;;;5.53;1.92;;;;;;;;;;5054478;28;20029;-72
2022/08/09 10:13:23;;;;;;;3.28;1.60;;;;;;;;;;5054188;28;20028;-72
2022/08/09 10:15:51;;;;;;;5.13;1.77;;;;;;;;;;5054593;28;20028;-72
2022/08/09 10:18:17;;;;;;;4.25;1.90;;;;;;;;;;5054346;28;20362;-72
2022/08/09 10:20:44;;;;;;;5.07;1.90;;;;;;;;;;5054040;28;20036;-72
2022/08/09 10:23:15;;;;;;;5.65;2.05;;;;;;;;;;5054252;28;20018;-71
2022/08/09 10:25:41;;;;;;;3.53;1.70;;;;;;;;;;5054494;28;20057;-71
2022/08/09 10:28:07;;;;;;;5.68;2.00;;;;;;;;;;5053858;28;20032;-72
2022/08/09 10:30:34;;;;;;;6.32;2.17;;;;;;;;;;5053849;28;20082;-72
2022/08/09 10:33:00;;;;;;;7.35;1.92;;;;;;;;;;5054123;28;20362;-72
2022/08/09 10:35:26;;;;;;;2.03;1.77;;;;;;;;;;5053731;28;20116;-72
2022/08/09 10:37:52;;;;;;;3.70;2.00;;;;;;;;;;5053579;28;20021;-72
2022/08/09 10:40:19;;;;;;;3.60;2.13;;;;;;;;;;5053835;28;20069;-72
2022/08/09 10:42:45;;;;;;;7.63;2.17;;;;;;;;;;5053561;28;20025;-73
2022/08/09 10:45:12;;;;;;;2.58;1.85;;;;;;;;;;5053580;28;20029;-72
2022/08/09 10:47:48;;;;;;;5.50;2.20;;;;;;;;;;5035715;28;20509;-72
2022/08/09 10:50:14;;;;;;;4.00;2.00;;;;;;;;;;5053544;28;20394;-73
2022/08/09 10:52:53;;;;;;;3.97;2.00;;;;;;;;;;5053476;28;20389;-72
2022/08/09 10:55:29;;;;;;;2.90;2.00;;;;;;;;;;5053056;28;20055;-72
2022/08/09 10:57:55;;;;;;;5.25;2.45;;;;;;;;;;5035468;28;20120;-72
2022/08/09 11:00:29;;;;;;;5.40;2.15;;;;;;;;;;5053987;28;20099;-72
2022/08/09 11:02:55;;;;;;;3.30;2.25;;;;;;;;;;5053261;28;20104;-72
2022/08/09 11:05:22;;;;;;;7.13;2.00;;;;;;;;;;5053702;28;20036;-72
2022/08/09 11:07:48;;;;;;;6.68;2.20;;;;;;;;;;5053386;28;20091;-72
2022/08/09 11:10:15;;;;;;;4.28;2.10;;;;;;;;;;5053142;28;20029;-72
2022/08/09 11:12:43;;;;;;;5.68;2.15;;;;;;;;;;5053133;28;20021;-71
2022/08/09 11:15:18;;;;;;;4.60;2.10;;;;;;;;;;5053555;28;20504;-72
2022/08/09 11:17:45;;;;;;;5.68;2.25;;;;;;;;;;5053604;28;20025;-72
2022/08/09 11:20:12;;;;;;;4.03;2.38;;;;;;;;;;5053581;28;20021;-72
2022/08/09 11:22:41;;;;;;;4.15;2.40;;;;;;;;;;5053085;28;20028;-72
2022/08/09 11:25:08;;;;;;;5.97;2.70;;;;;;;;;;5053323;28;20025;-72
2022/08/09 11:27:37;;;;;;;6.90;2.60;;;;;;;;;;5053584;28;20033;-72
2022/08/09 11:30:04;;;;;;;5.53;2.17;;;;;;;;;;5035249;28;20430;-72
2022/08/09 11:32:42;;;;;;;3.42;1.85;;;;;;;;;;5053004;28;20398;-72
2022/08/09 11:35:11;;;;;;;5.03;2.15;;;;;;;;;;5052921;28;20096;-72
2022/08/09 11:37:38;;;;;;;9.83;2.50;;;;;;;;;;5052937;28;20396;-72
2022/08/09 11:40:06;;;;;;;6.57;2.10;;;;;;;;;;5053047;28;20247;-72
2022/08/09 11:42:44;;;;;;;4.80;2.28;;;;;;;;;;5057000;28;20478;-72
2022/08/09 11:45:21;;;;;;;5.30;2.15;;;;;;;;;;5057264;28;20052;-72
2022/08/09 11:47:47;;;;;;;3.95;2.30;;;;;;;;;;5038984;28;20031;-72
2022/08/09 11:50:14;;;;;;;6.55;2.15;;;;;;;;;;5057172;28;20029;-72
2022/08/09 11:52:58;;;;;;;5.45;2.45;;;;;;;;;;5056841;28;20033;-72
2022/08/09 11:55:31;;;;;;;5.45;2.30;;;;;;;;;;5056340;28;20041;-72
2022/08/09 11:57:58;;;;;;;3.90;2.40;;;;;;;;;;5056919;28;20029;-72
2022/08/09 12:00:24;;;;;;;4.07;2.30;;;;;;;;;;5039330;28;20021;-72
2022/08/09 12:02:50;;;;;;;5.75;2.30;;;;;;;;;;5038728;28;20036;-72
2022/08/09 12:05:16;;;;;;;6.85;2.50;;;;;;;;;;5056892;28;20017;-72
2022/08/09 12:07:43;;;;;;;4.53;2.65;;;;;;;;;;5056504;28;20029;-71
2022/08/09 12:10:10;;;;;;;5.53;2.10;;;;;;;;;;5056448;28;20039;-71
2022/08/09 12:12:49;;;;;;;5.15;2.22;;;;;;;;;;5056405;28;20056;-72
2022/08/09 12:15:33;;;;;;;4.38;2.30;;;;;;;;;;5038542;28;20029;-72
2022/08/09 12:17:59;;;;;;;6.50;2.67;;;;;;;;;;5056589;28;20033;-72
2022/08/09 12:20:26;;;;;;;4.72;2.50;;;;;;;;;;5056326;28;20083;-71
2022/08/09 12:22:57;;;;;;;4.53;1.90;;;;;;;;;;5056278;28;20067;-72
2022/08/09 12:25:23;;;;;;;4.82;2.50;;;;;;;;;;5056244;28;20057;-72
2022/08/09 12:28:07;;;;;;;5.40;2.08;;;;;;;;;;5056431;28;20039;-71
2022/08/09 12:30:33;;;;;;;3.33;2.20;;;;;;;;;;5037986;28;20075;-72
2022/08/09 12:33:03;;;;;;;3.53;1.92;;;;;;;;;;5056065;28;20452;-72
2022/08/09 12:35:29;;;;;;;;;;;;;;;;;;5038606;28;20440;-72
2022/08/09 12:37:55;;;;;;;4.68;2.13;;;;;;;;;;5038036;28;19957;-72
2022/08/09 12:40:23;;;;;;;3.75;1.92;;;;;;;;;;5055922;28;20057;-71
2022/08/09 12:42:49;;;;;;;6.28;2.20;;;;;;;;;;5038045;28;20473;-72
2022/08/09 12:45:15;;;;;;;4.10;2.63;;;;;;;;;;5056149;28;20503;-73
2022/08/09 12:47:41;;;;;;;5.25;2.20;;;;;;;;;;5055836;28;20108;-72
2022/08/09 12:50:16;;;;;;;5.47;2.13;;;;;;;;;;5056062;28;20024;-72
2022/08/09 12:52:43;;;;;;;2.78;2.00;;;;;;;;;;5055127;28;20025;-72
2022/08/09 12:55:09;;;;;;;3.22;1.90;;;;;;;;;;5055284;28;20060;-72
2022/08/09 12:57:42;;;;;;;5.55;2.08;;;;;;;;;;5056104;28;20028;-72
2022/08/09 13:00:17;;;;;;;4.85;2.40;;;;;;;;;;5056378;28;20143;-72
2022/08/09 13:02:47;;;;;;;4.45;2.33;;;;;;;;;;5037688;28;20397;-72
2022/08/09 13:05:13;;;;;;;5.82;2.35;;;;;;;;;;5055836;28;20470;-73
2022/08/09 13:07:39;;;;;;;3.53;2.13;;;;;;;;;;5055454;28;20104;-72
2022/08/09 13:10:06;;;;;;;6.45;2.40;;;;;;;;;;5055423;28;20527;-72
2022/08/09 13:12:32;;;;;;;2.85;2.10;;;;;;;;;;5055363;28;20025;-72
2022/08/09 13:15:08;;;;;;;3.60;2.10;;;;;;;;;;5037469;28;20033;-72
2022/08/09 13:17:35;;;;;;;3.97;1.98;;;;;;;;;;5055769;28;20032;-72
2022/08/09 13:20:05;;;;;;;4.85;1.90;;;;;;;;;;5037387;28;20112;-72
2022/08/09 13:22:31;;;;;;;3.20;1.90;;;;;;;;;;5037093;28;20463;-72
2022/08/09 13:24:59;;;;;;;2.80;2.10;;;;;;;;;;5055413;28;20056;-72
2022/08/09 13:27:31;;;;;;;4.40;2.10;;;;;;;;;;5055340;28;20025;-72
2022/08/09 13:29:58;;;;;;;3.97;2.25;;;;;;;;;;5037131;28;20032;-72
2022/08/09 13:32:25;;;;;;;5.13;2.00;;;;;;;;;;5055014;28;20039;-73
2022/08/09 13:34:51;;;;;;;5.50;1.95;;;;;;;;;;5055479;28;20040;-71
2022/08/09 13:37:17;;;;;;;6.72;1.90;;;;;;;;;;5054863;28;20025;-72
2022/08/09 13:39:43;;;;;;;2.45;1.75;;;;;;;;;;5054938;28;20169;-72
2022/08/09 13:42:11;;;;;;;4.50;2.10;;;;;;;;;;5054809;28;20508;-72
2022/08/09 13:44:37;;;;;;;4.63;1.92;;;;;;;;;;5055031;28;20071;-72
2022/08/09 13:47:05;;;;;;;3.55;2.25;;;;;;;;;;5036874;28;20032;-72
2022/08/09 13:49:32;;;;;;;4.25;1.95;;;;;;;;;;5055273;28;20458;-72
2022/08/09 13:51:58;;;;;;;1.90;1.75;;;;;;;;;;5054648;28;20025;-72
2022/08/09 13:54:24;;;;;;;3.30;1.80;;;;;;;;;;5054408;28;20524;-72
2022/08/09 13:56:50;;;;;;;4.40;1.90;;;;;;;;;;5054422;28;20061;-72
2022/08/09 13:59:16;;;;;;;4.13;2.40;;;;;;;;;;5054746;28;20108;-72
2022/08/09 14:01:42;;;;;;;4.32;2.00;;;;;;;;;;5054851;28;20071;-72
2022/08/09 14:04:08;;;;;;;5.82;1.90;;;;;;;;;;5054070;28;20028;-73
2022/08/09 14:06:34;;;;;;;6.00;1.90;;;;;;;;;;5054320;28;20439;-72
2022/08/09 14:09:00;;;;;;;2.67;2.10;;;;;;;;;;5054316;28;20029;-72
2022/08/09 14:11:26;;;;;;;4.85;1.95;;;;;;;;;;5054756;28;20025;-72
2022/08/09 14:13:52;;;;;;;3.90;1.88;;;;;;;;;;5054237;28;20064;-72
2022/08/09 14:16:19;;;;;;;3.35;2.20;;;;;;;;;;5054648;28;20033;-72
2022/08/09 14:18:46;;;;;;;5.78;2.13;;;;;;;;;;5054641;28;20513;-72
2022/08/09 14:21:16;;;;;;;7.60;1.98;;;;;;;;;;5054082;28;20045;-71
2022/08/09 14:23:42;;;;;;;;;;;;;;;;;;5055036;28;20024;-72
2022/08/09 14:26:08;;;;;;;3.45;1.85;;;;;;;;;;5054016;28;19904;-72
2022/08/09 14:28:34;;;;;;;4.72;1.85;;;;;;;;;;5053959;28;20469;-72
2022/08/09 14:31:00;;;;;;;6.32;2.10;;;;;;;;;;5036024;28;20032;-72
2022/08/09 14:33:26;;;;;;;3.50;2.03;;;;;;;;;;5053854;28;20021;-73
2022/08/09 14:35:52;;;;;;;3.00;2.35;;;;;;;;;;5054079;28;20100;-72
2022/08/09 14:38:18;;;;;;;5.07;1.98;;;;;;;;;;5053670;28;20025;-72
2022/08/09 14:40:44;;;;;;;2.95;2.10;;;;;;;;;;5053589;28;20029;-72
2022/08/09 14:43:11;;;;;;;3.30;2.10;;;;;;;;;;5053598;28;20096;-72
2022/08/09 14:45:37;;;;;;;7.90;2.35;;;;;;;;;;5035759;28;20071;-72